sensor_id;sensor_type;location;lat;lon;timestamp;pressure;altitude;pressure_sealevel;temperature;humidity
45813;BME280;31519;45.408;10.962;2024-03-02T00:42:11;99862.94;;;14.24;84.33
45813;BME280;31519;45.408;10.962;2024-03-02T00:44:40;99866.56;;;14.15;84.46
45813;BME280;31519;45.408;10.962;2024-03-02T00:47:08;99862.69;;;14.29;84.33
45813;BME280;31519;45.408;10.962;2024-03-02T00:49:37;99866.41;;;14.24;84.27
45813;BME280;31519;45.408;10.962;2024-03-02T00:52:08;99864.50;;;14.25;83.60
45813;BME280;31519;45.408;10.962;2024-03-02T00:54:37;99866.72;;;14.23;83.55
45813;BME280;31519;45.408;10.962;2024-03-02T00:57:05;99868.69;;;14.38;83.06
45813;BME280;31519;45.408;10.962;2024-03-02T00:59:34;99854.84;;;14.36;82.60
45813;BME280;31519;45.408;10.962;2024-03-02T01:02:02;99856.97;;;14.30;82.44
45813;BME280;31519;45.408;10.962;2024-03-02T01:04:31;99857.66;;;14.27;81.60
45813;BME280;31519;45.408;10.962;2024-03-02T01:06:59;99857.66;;;14.11;82.14
45813;BME280;31519;45.408;10.962;2024-03-02T01:09:27;99863.63;;;14.20;81.85
45813;BME280;31519;45.408;10.962;2024-03-02T01:11:56;99858.34;;;14.24;81.53
45813;BME280;31519;45.408;10.962;2024-03-02T01:14:24;99858.47;;;14.00;82.32
45813;BME280;31519;45.408;10.962;2024-03-02T01:16:53;99858.16;;;14.17;81.35
45813;BME280;31519;45.408;10.962;2024-03-02T01:19:22;99856.19;;;14.14;81.66
45813;BME280;31519;45.408;10.962;2024-03-02T01:21:50;99848.22;;;14.02;81.77
45813;BME280;31519;45.408;10.962;2024-03-02T01:24:19;99844.69;;;14.13;80.63
45813;BME280;31519;45.408;10.962;2024-03-02T01:26:47;99851.06;;;14.09;80.61
45813;BME280;31519;45.408;10.962;2024-03-02T01:29:16;99844.59;;;14.10;80.00
45813;BME280;31519;45.408;10.962;2024-03-02T01:31:44;99844.78;;;14.17;79.94
45813;BME280;31519;45.408;10.962;2024-03-02T01:34:13;99836.13;;;14.08;79.15
45813;BME280;31519;45.408;10.962;2024-03-02T01:36:41;99838.38;;;14.21;78.59
45813;BME280;31519;45.408;10.962;2024-03-02T01:39:10;99836.75;;;14.33;78.19
45813;BME280;31519;45.408;10.962;2024-03-02T01:41:38;99831.56;;;14.24;77.96
45813;BME280;31519;45.408;10.962;2024-03-02T01:44:06;99835.13;;;14.28;77.47
45813;BME280;31519;45.408;10.962;2024-03-02T01:46:34;99834.50;;;14.19;77.29
45813;BME280;31519;45.408;10.962;2024-03-02T01:49:04;99830.50;;;14.13;76.75
45813;BME280;31519;45.408;10.962;2024-03-02T01:51:32;99828.53;;;14.10;76.39
45813;BME280;31519;45.408;10.962;2024-03-02T01:54:00;99838.81;;;14.24;75.90
45813;BME280;31519;45.408;10.962;2024-03-02T01:56:29;99832.94;;;14.18;75.40
45813;BME280;31519;45.408;10.962;2024-03-02T01:58:57;99834.66;;;14.26;75.04
45813;BME280;31519;45.408;10.962;2024-03-02T02:01:26;99825.59;;;14.15;74.67
45813;BME280;31519;45.408;10.962;2024-03-02T02:03:55;99834.88;;;14.33;74.55
45813;BME280;31519;45.408;10.962;2024-03-02T02:06:23;99838.78;;;14.51;74.02
45813;BME280;31519;45.408;10.962;2024-03-02T02:08:52;99839.91;;;14.50;73.74
45813;BME280;31519;45.408;10.962;2024-03-02T02:11:20;99842.25;;;14.36;73.99
45813;BME280;31519;45.408;10.962;2024-03-02T02:13:48;99837.97;;;14.35;74.08
45813;BME280;31519;45.408;10.962;2024-03-02T02:16:17;99844.28;;;14.27;73.02
45813;BME280;31519;45.408;10.962;2024-03-02T02:18:45;99842.28;;;14.24;73.14
45813;BME280;31519;45.408;10.962;2024-03-02T02:21:13;99837.59;;;14.21;72.95
45813;BME280;31519;45.408;10.962;2024-03-02T02:23:42;99841.91;;;14.10;73.89
45813;BME280;31519;45.408;10.962;2024-03-02T02:26:14;99839.84;;;14.19;73.84
45813;BME280;31519;45.408;10.962;2024-03-02T02:28:43;99837.25;;;14.07;74.44
45813;BME280;31519;45.408;10.962;2024-03-02T02:31:15;99838.13;;;14.27;74.41
45813;BME280;31519;45.408;10.962;2024-03-02T02:33:43;99842.38;;;14.28;74.20
45813;BME280;31519;45.408;10.962;2024-03-02T02:36:11;99830.59;;;14.16;74.76
45813;BME280;31519;45.408;10.962;2024-03-02T02:38:43;99837.44;;;14.14;75.45
45813;BME280;31519;45.408;10.962;2024-03-02T02:41:12;99830.81;;;13.96;76.11
45813;BME280;31519;45.408;10.962;2024-03-02T02:43:41;99826.72;;;14.14;75.51
45813;BME280;31519;45.408;10.962;2024-03-02T02:46:09;99819.50;;;14.02;75.98
45813;BME280;31519;45.408;10.962;2024-03-02T02:48:37;99821.28;;;14.10;75.46
45813;BME280;31519;45.408;10.962;2024-03-02T02:51:05;99824.88;;;14.02;75.69
45813;BME280;31519;45.408;10.962;2024-03-02T02:53:34;99826.00;;;14.01;75.81
45813;BME280;31519;45.408;10.962;2024-03-02T02:56:03;99820.38;;;13.91;75.53
45813;BME280;31519;45.408;10.962;2024-03-02T02:58:32;99826.53;;;14.07;75.17
45813;BME280;31519;45.408;10.962;2024-03-02T03:01:00;99818.22;;;13.96;75.93
45813;BME280;31519;45.408;10.962;2024-03-02T03:03:28;99822.19;;;14.02;75.43
45813;BME280;31519;45.408;10.962;2024-03-02T03:05:57;99818.47;;;13.91;75.76
45813;BME280;31519;45.408;10.962;2024-03-02T03:08:25;99828.69;;;14.01;75.74
45813;BME280;31519;45.408;10.962;2024-03-02T03:10:53;99830.38;;;13.94;76.06
45813;BME280;31519;45.408;10.962;2024-03-02T03:13:22;99829.03;;;14.00;75.74
45813;BME280;31519;45.408;10.962;2024-03-02T03:15:50;99827.66;;;14.06;75.55
45813;BME280;31519;45.408;10.962;2024-03-02T03:18:19;99823.91;;;13.95;76.03
45813;BME280;31519;45.408;10.962;2024-03-02T03:20:47;99832.22;;;14.05;75.84
45813;BME280;31519;45.408;10.962;2024-03-02T03:23:16;99836.03;;;14.04;76.40
45813;BME280;31519;45.408;10.962;2024-03-02T03:25:44;99832.38;;;13.97;76.27
45813;BME280;31519;45.408;10.962;2024-03-02T03:28:13;99838.81;;;13.80;76.96
45813;BME280;31519;45.408;10.962;2024-03-02T03:30:41;99839.69;;;13.84;77.17
45813;BME280;31519;45.408;10.962;2024-03-02T03:33:10;99828.41;;;13.91;76.41
45813;BME280;31519;45.408;10.962;2024-03-02T03:35:38;99845.66;;;13.93;76.79
45813;BME280;31519;45.408;10.962;2024-03-02T03:38:07;99836.47;;;14.06;75.88
45813;BME280;31519;45.408;10.962;2024-03-02T03:40:35;99842.00;;;14.13;75.82
45813;BME280;31519;45.408;10.962;2024-03-02T03:43:03;99844.94;;;14.08;75.47
45813;BME280;31519;45.408;10.962;2024-03-02T03:45:31;99843.72;;;14.06;75.49
45813;BME280;31519;45.408;10.962;2024-03-02T03:48:00;99840.09;;;14.14;75.22
45813;BME280;31519;45.408;10.962;2024-03-02T03:50:28;99841.16;;;14.25;75.03
45813;BME280;31519;45.408;10.962;2024-03-02T03:52:56;99842.78;;;14.14;75.18
45813;BME280;31519;45.408;10.962;2024-03-02T03:55:25;99836.66;;;14.13;74.71
45813;BME280;31519;45.408;10.962;2024-03-02T03:57:54;99843.13;;;14.12;75.15
45813;BME280;31519;45.408;10.962;2024-03-02T04:00:22;99844.34;;;14.15;75.19
45813;BME280;31519;45.408;10.962;2024-03-02T04:02:50;99847.28;;;14.10;75.51
45813;BME280;31519;45.408;10.962;2024-03-02T04:05:19;99849.78;;;14.18;75.33
45813;BME280;31519;45.408;10.962;2024-03-02T04:07:47;99852.00;;;14.01;76.58
45813;BME280;31519;45.408;10.962;2024-03-02T04:10:15;99854.84;;;14.08;76.73
45813;BME280;31519;45.408;10.962;2024-03-02T04:12:45;99857.03;;;14.18;76.74
45813;BME280;31519;45.408;10.962;2024-03-02T04:15:14;99858.72;;;13.95;76.82
45813;BME280;31519;45.408;10.962;2024-03-02T04:17:42;99852.94;;;13.93;76.69
45813;BME280;31519;45.408;10.962;2024-03-02T04:20:11;99858.81;;;13.98;76.43
45813;BME280;31519;45.408;10.962;2024-03-02T04:22:41;99858.41;;;13.84;77.06
45813;BME280;31519;45.408;10.962;2024-03-02T04:25:09;99851.63;;;14.02;77.01
45813;BME280;31519;45.408;10.962;2024-03-02T04:27:37;99856.41;;;14.09;76.40
45813;BME280;31519;45.408;10.962;2024-03-02T04:30:06;99867.72;;;13.74;77.11
45813;BME280;31519;45.408;10.962;2024-03-02T04:32:34;99860.75;;;13.86;76.88
45813;BME280;31519;45.408;10.962;2024-03-02T04:35:05;99868.22;;;13.92;76.57
45813;BME280;31519;45.408;10.962;2024-03-02T04:37:36;99866.13;;;13.86;76.57
45813;BME280;31519;45.408;10.962;2024-03-02T04:40:05;99870.91;;;13.92;76.70
45813;BME280;31519;45.408;10.962;2024-03-02T04:42:36;99872.72;;;14.04;76.94
45813;BME280;31519;45.408;10.962;2024-03-02T04:45:05;99875.63;;;13.83;77.56
45813;BME280;31519;45.408;10.962;2024-03-02T04:47:33;99873.31;;;13.69;78.87
45813;BME280;31519;45.408;10.962;2024-03-02T04:50:02;99882.78;;;13.67;79.45
45813;BME280;31519;45.408;10.962;2024-03-02T04:52:30;99875.72;;;13.87;79.16
45813;BME280;31519;45.408;10.962;2024-03-02T04:54:58;99875.47;;;13.92;79.66
45813;BME280;31519;45.408;10.962;2024-03-02T04:57:38;99879.81;;;13.96;79.29
45813;BME280;31519;45.408;10.962;2024-03-02T05:00:07;99886.72;;;13.97;79.46
45813;BME280;31519;45.408;10.962;2024-03-02T05:02:36;99885.63;;;14.14;79.55
45813;BME280;31519;45.408;10.962;2024-03-02T05:05:05;99897.22;;;13.90;80.10
45813;BME280;31519;45.408;10.962;2024-03-02T05:07:33;99886.56;;;13.66;80.98
45813;BME280;31519;45.408;10.962;2024-03-02T05:10:01;99896.03;;;13.75;80.84
45813;BME280;31519;45.408;10.962;2024-03-02T05:12:29;99903.50;;;13.82;80.79
45813;BME280;31519;45.408;10.962;2024-03-02T05:15:14;99899.16;;;13.77;81.07
45813;BME280;31519;45.408;10.962;2024-03-02T05:17:42;99904.88;;;13.64;81.12
45813;BME280;31519;45.408;10.962;2024-03-02T05:20:11;99909.66;;;13.70;81.31
45813;BME280;31519;45.408;10.962;2024-03-02T05:22:39;99906.00;;;13.63;81.46
45813;BME280;31519;45.408;10.962;2024-03-02T05:25:08;99901.38;;;13.75;80.55
45813;BME280;31519;45.408;10.962;2024-03-02T05:27:38;99897.22;;;13.90;80.08
45813;BME280;31519;45.408;10.962;2024-03-02T05:30:07;99904.97;;;14.07;79.33
45813;BME280;31519;45.408;10.962;2024-03-02T05:32:35;99903.59;;;13.86;79.75
45813;BME280;31519;45.408;10.962;2024-03-02T05:35:04;99906.41;;;13.77;79.92
45813;BME280;31519;45.408;10.962;2024-03-02T05:37:32;99908.25;;;13.89;79.41
45813;BME280;31519;45.408;10.962;2024-03-02T05:40:02;99910.81;;;13.97;78.59
45813;BME280;31519;45.408;10.962;2024-03-02T05:42:30;99914.75;;;13.88;78.07
45813;BME280;31519;45.408;10.962;2024-03-02T05:44:59;99908.16;;;13.97;78.18
45813;BME280;31519;45.408;10.962;2024-03-02T05:47:27;99912.13;;;14.03;77.98
45813;BME280;31519;45.408;10.962;2024-03-02T05:49:56;99913.75;;;13.92;78.24
45813;BME280;31519;45.408;10.962;2024-03-02T05:52:24;99916.09;;;13.82;78.06
45813;BME280;31519;45.408;10.962;2024-03-02T05:54:53;99914.69;;;14.00;77.43
45813;BME280;31519;45.408;10.962;2024-03-02T05:57:21;99922.66;;;13.96;77.81
45813;BME280;31519;45.408;10.962;2024-03-02T06:00:09;99925.88;;;14.02;77.97
45813;BME280;31519;45.408;10.962;2024-03-02T06:02:40;99922.66;;;13.96;78.02
45813;BME280;31519;45.408;10.962;2024-03-02T06:05:09;99929.38;;;13.78;78.32
45813;BME280;31519;45.408;10.962;2024-03-02T06:07:37;99928.72;;;13.81;77.95
45813;BME280;31519;45.408;10.962;2024-03-02T06:10:06;99933.69;;;13.95;77.97
45813;BME280;31519;45.408;10.962;2024-03-02T06:12:39;99937.44;;;14.06;77.78
45813;BME280;31519;45.408;10.962;2024-03-02T06:15:08;99941.31;;;13.81;78.32
45813;BME280;31519;45.408;10.962;2024-03-02T06:17:36;99945.75;;;13.89;78.32
45813;BME280;31519;45.408;10.962;2024-03-02T06:20:05;99940.47;;;14.04;78.28
45813;BME280;31519;45.408;10.962;2024-03-02T06:22:36;99947.84;;;13.95;78.37
45813;BME280;31519;45.408;10.962;2024-03-02T06:25:05;99941.75;;;13.83;79.16
45813;BME280;31519;45.408;10.962;2024-03-02T06:27:33;99943.78;;;13.73;79.59
45813;BME280;31519;45.408;10.962;2024-03-02T06:30:02;99949.31;;;13.93;79.78
45813;BME280;31519;45.408;10.962;2024-03-02T06:32:32;99952.53;;;13.98;79.58
45813;BME280;31519;45.408;10.962;2024-03-02T06:35:00;99953.38;;;13.74;80.04
45813;BME280;31519;45.408;10.962;2024-03-02T06:37:29;99945.91;;;13.68;80.47
45813;BME280;31519;45.408;10.962;2024-03-02T06:39:58;99951.13;;;13.76;80.57
45813;BME280;31519;45.408;10.962;2024-03-02T06:42:26;99955.94;;;13.83;80.44
45813;BME280;31519;45.408;10.962;2024-03-02T06:44:55;99953.72;;;13.73;80.96
45813;BME280;31519;45.408;10.962;2024-03-02T06:47:23;99961.75;;;13.49;81.99
45813;BME280;31519;45.408;10.962;2024-03-02T06:49:52;99964.75;;;13.84;81.57
45813;BME280;31519;45.408;10.962;2024-03-02T06:52:21;99965.38;;;13.93;81.09
45813;BME280;31519;45.408;10.962;2024-03-02T06:54:52;99973.66;;;13.88;81.49
45813;BME280;31519;45.408;10.962;2024-03-02T06:57:20;99979.66;;;13.85;81.14
45813;BME280;31519;45.408;10.962;2024-03-02T06:59:49;99974.75;;;13.87;81.59
45813;BME280;31519;45.408;10.962;2024-03-02T07:02:19;99984.13;;;13.81;81.89
45813;BME280;31519;45.408;10.962;2024-03-02T07:04:48;99980.88;;;13.99;81.48
45813;BME280;31519;45.408;10.962;2024-03-02T07:07:16;99985.19;;;14.04;81.79
45813;BME280;31519;45.408;10.962;2024-03-02T07:09:45;99992.03;;;13.89;82.44
45813;BME280;31519;45.408;10.962;2024-03-02T07:12:13;99992.84;;;13.77;82.83
45813;BME280;31519;45.408;10.962;2024-03-02T07:14:42;99996.72;;;13.92;82.97
45813;BME280;31519;45.408;10.962;2024-03-02T07:17:29;100001.44;;;13.83;84.14
45813;BME280;31519;45.408;10.962;2024-03-02T07:19:57;100003.22;;;13.67;84.81
45813;BME280;31519;45.408;10.962;2024-03-02T07:22:26;100009.47;;;13.83;84.68
45813;BME280;31519;45.408;10.962;2024-03-02T07:24:54;100012.25;;;13.87;84.45
45813;BME280;31519;45.408;10.962;2024-03-02T07:27:22;100014.25;;;13.77;85.15
45813;BME280;31519;45.408;10.962;2024-03-02T07:29:51;100021.63;;;13.93;84.93
45813;BME280;31519;45.408;10.962;2024-03-02T07:32:19;100023.38;;;14.01;84.34
45813;BME280;31519;45.408;10.962;2024-03-02T07:34:47;100022.03;;;14.07;83.57
45813;BME280;31519;45.408;10.962;2024-03-02T07:37:16;100029.06;;;13.99;83.58
45813;BME280;31519;45.408;10.962;2024-03-02T07:39:44;100035.00;;;13.93;84.38
45813;BME280;31519;45.408;10.962;2024-03-02T07:42:13;100032.06;;;13.98;84.33
45813;BME280;31519;45.408;10.962;2024-03-02T07:44:44;100035.31;;;14.03;83.37
45813;BME280;31519;45.408;10.962;2024-03-02T07:47:13;100047.47;;;14.01;83.44
45813;BME280;31519;45.408;10.962;2024-03-02T07:49:41;100042.44;;;14.11;82.92
45813;BME280;31519;45.408;10.962;2024-03-02T07:52:09;100047.53;;;14.16;83.37
45813;BME280;31519;45.408;10.962;2024-03-02T07:54:38;100046.09;;;14.19;82.98
45813;BME280;31519;45.408;10.962;2024-03-02T07:57:06;100061.25;;;14.27;83.75
45813;BME280;31519;45.408;10.962;2024-03-02T07:59:34;100054.97;;;13.95;84.04
45813;BME280;31519;45.408;10.962;2024-03-02T08:02:03;100063.09;;;14.11;84.92
45813;BME280;31519;45.408;10.962;2024-03-02T08:04:31;100065.19;;;14.17;85.37
45813;BME280;31519;45.408;10.962;2024-03-02T08:06:59;100067.44;;;14.15;85.41
45813;BME280;31519;45.408;10.962;2024-03-02T08:09:28;100066.53;;;14.24;85.67
45813;BME280;31519;45.408;10.962;2024-03-02T08:11:56;100058.84;;;13.98;87.33
45813;BME280;31519;45.408;10.962;2024-03-02T08:14:27;100064.53;;;14.08;87.66
45813;BME280;31519;45.408;10.962;2024-03-02T08:16:56;100061.88;;;13.96;89.03
45813;BME280;31519;45.408;10.962;2024-03-02T08:19:24;100065.53;;;14.04;88.32
45813;BME280;31519;45.408;10.962;2024-03-02T08:21:52;100074.69;;;14.15;88.65
45813;BME280;31519;45.408;10.962;2024-03-02T08:24:21;100077.22;;;14.24;88.10
45813;BME280;31519;45.408;10.962;2024-03-02T08:26:49;100074.88;;;14.34;87.71
45813;BME280;31519;45.408;10.962;2024-03-02T08:29:17;100080.00;;;14.27;87.76
45813;BME280;31519;45.408;10.962;2024-03-02T08:31:46;100078.44;;;14.26;88.29
45813;BME280;31519;45.408;10.962;2024-03-02T08:34:15;100078.94;;;14.16;87.65
45813;BME280;31519;45.408;10.962;2024-03-02T08:36:43;100086.34;;;14.35;88.03
45813;BME280;31519;45.408;10.962;2024-03-02T08:39:12;100084.94;;;14.13;87.65
45813;BME280;31519;45.408;10.962;2024-03-02T08:41:47;100090.41;;;14.29;87.50
45813;BME280;31519;45.408;10.962;2024-03-02T08:44:17;100092.06;;;14.33;88.67
45813;BME280;31519;45.408;10.962;2024-03-02T08:46:45;100095.75;;;14.41;88.37
45813;BME280;31519;45.408;10.962;2024-03-02T08:49:14;100090.84;;;14.43;87.07
45813;BME280;31519;45.408;10.962;2024-03-02T08:51:42;100090.94;;;14.46;87.42
45813;BME280;31519;45.408;10.962;2024-03-02T08:54:11;100094.81;;;14.49;87.07
45813;BME280;31519;45.408;10.962;2024-03-02T08:56:39;100088.31;;;14.62;86.34
45813;BME280;31519;45.408;10.962;2024-03-02T08:59:07;100089.50;;;14.77;86.41
45813;BME280;31519;45.408;10.962;2024-03-02T09:01:35;100084.72;;;14.70;86.86
45813;BME280;31519;45.408;10.962;2024-03-02T09:04:10;100084.28;;;14.68;86.69
45813;BME280;31519;45.408;10.962;2024-03-02T09:06:38;100082.63;;;14.63;86.15
45813;BME280;31519;45.408;10.962;2024-03-02T09:09:06;100096.41;;;14.78;86.85
45813;BME280;31519;45.408;10.962;2024-03-02T09:11:34;100088.59;;;14.85;86.54
45813;BME280;31519;45.408;10.962;2024-03-02T09:14:03;100085.91;;;14.85;85.86
45813;BME280;31519;45.408;10.962;2024-03-02T09:16:31;100094.97;;;14.80;86.24
45813;BME280;31519;45.408;10.962;2024-03-02T09:19:00;100097.69;;;14.96;85.77
45813;BME280;31519;45.408;10.962;2024-03-02T09:21:28;100096.63;;;14.85;85.31
45813;BME280;31519;45.408;10.962;2024-03-02T09:23:58;100093.94;;;14.85;84.54
45813;BME280;31519;45.408;10.962;2024-03-02T09:26:26;100104.06;;;14.91;83.43
45813;BME280;31519;45.408;10.962;2024-03-02T09:28:55;100108.38;;;14.80;83.73
45813;BME280;31519;45.408;10.962;2024-03-02T09:31:23;100104.38;;;14.62;84.01
45813;BME280;31519;45.408;10.962;2024-03-02T09:33:52;100105.31;;;14.66;84.39
45813;BME280;31519;45.408;10.962;2024-03-02T09:36:21;100107.53;;;14.64;85.13
45813;BME280;31519;45.408;10.962;2024-03-02T09:38:50;100105.16;;;14.75;85.19
45813;BME280;31519;45.408;10.962;2024-03-02T09:41:19;100108.63;;;14.63;85.40
45813;BME280;31519;45.408;10.962;2024-03-02T09:43:48;100107.75;;;14.59;85.52
45813;BME280;31519;45.408;10.962;2024-03-02T09:46:16;100104.53;;;14.53;86.82
45813;BME280;31519;45.408;10.962;2024-03-02T09:48:45;100114.91;;;14.55;87.59
45813;BME280;31519;45.408;10.962;2024-03-02T09:51:13;100121.34;;;14.78;87.94
45813;BME280;31519;45.408;10.962;2024-03-02T09:53:42;100121.66;;;14.77;88.61
45813;BME280;31519;45.408;10.962;2024-03-02T09:56:10;100114.00;;;14.91;88.25
45813;BME280;31519;45.408;10.962;2024-03-02T09:58:39;100122.25;;;14.70;88.70
45813;BME280;31519;45.408;10.962;2024-03-02T10:01:08;100123.91;;;14.75;88.79
45813;BME280;31519;45.408;10.962;2024-03-02T10:03:40;100124.09;;;14.82;89.66
45813;BME280;31519;45.408;10.962;2024-03-02T10:06:22;100120.63;;;14.93;87.98
45813;BME280;31519;45.408;10.962;2024-03-02T10:08:52;100118.84;;;14.85;87.89
45813;BME280;31519;45.408;10.962;2024-03-02T10:11:32;100129.13;;;14.83;88.58
45813;BME280;31519;45.408;10.962;2024-03-02T10:14:06;100109.75;;;14.90;88.38
45813;BME280;31519;45.408;10.962;2024-03-02T10:16:42;100119.22;;;14.99;88.02
45813;BME280;31519;45.408;10.962;2024-03-02T10:19:22;100121.34;;;15.06;88.59
45813;BME280;31519;45.408;10.962;2024-03-02T10:21:52;100127.66;;;15.14;88.01
45813;BME280;31519;45.408;10.962;2024-03-02T10:24:22;100124.03;;;15.22;87.86
45813;BME280;31519;45.408;10.962;2024-03-02T10:26:51;100130.03;;;15.31;86.87
45813;BME280;31519;45.408;10.962;2024-03-02T10:29:20;100129.78;;;15.36;87.35
45813;BME280;31519;45.408;10.962;2024-03-02T10:31:48;100129.69;;;15.32;87.19
45813;BME280;31519;45.408;10.962;2024-03-02T10:34:17;100131.94;;;15.30;87.95
45813;BME280;31519;45.408;10.962;2024-03-02T10:36:47;100128.88;;;15.16;87.42
45813;BME280;31519;45.408;10.962;2024-03-02T10:39:17;100129.69;;;15.32;87.95
45813;BME280;31519;45.408;10.962;2024-03-02T10:41:45;100130.38;;;15.45;86.59
45813;BME280;31519;45.408;10.962;2024-03-02T10:44:15;100127.59;;;15.54;85.68
45813;BME280;31519;45.408;10.962;2024-03-02T10:46:45;100126.41;;;15.39;85.34
45813;BME280;31519;45.408;10.962;2024-03-02T10:49:14;100125.34;;;15.28;85.63
45813;BME280;31519;45.408;10.962;2024-03-02T10:51:42;100135.75;;;15.29;86.57
45813;BME280;31519;45.408;10.962;2024-03-02T10:54:11;100131.44;;;15.40;86.43
45813;BME280;31519;45.408;10.962;2024-03-02T10:56:41;100128.41;;;15.42;85.94
45813;BME280;31519;45.408;10.962;2024-03-02T11:01:57;100130.38;;;15.29;85.29
45813;BME280;31519;45.408;10.962;2024-03-02T11:04:34;100124.69;;;15.46;84.49
45813;BME280;31519;45.408;10.962;2024-03-02T11:07:06;100130.44;;;15.17;84.31
45813;BME280;31519;45.408;10.962;2024-03-02T11:09:41;100134.34;;;15.35;83.40
45813;BME280;31519;45.408;10.962;2024-03-02T11:12:22;100132.03;;;15.34;83.56
45813;BME280;31519;45.408;10.962;2024-03-02T11:14:51;100127.09;;;15.36;84.25
45813;BME280;31519;45.408;10.962;2024-03-02T11:17:23;100130.56;;;15.36;84.42
45813;BME280;31519;45.408;10.962;2024-03-02T11:19:53;100125.03;;;15.29;85.11
45813;BME280;31519;45.408;10.962;2024-03-02T11:22:22;100123.91;;;15.30;85.83
45813;BME280;31519;45.408;10.962;2024-03-02T11:24:52;100117.63;;;15.26;85.50
45813;BME280;31519;45.408;10.962;2024-03-02T11:33:07;100110.81;;;15.44;85.29
45813;BME280;31519;45.408;10.962;2024-03-02T11:35:42;100112.47;;;15.33;86.28
45813;BME280;31519;45.408;10.962;2024-03-02T11:38:11;100107.09;;;15.33;87.62
45813;BME280;31519;45.408;10.962;2024-03-02T11:40:40;100107.00;;;15.45;86.64
45813;BME280;31519;45.408;10.962;2024-03-02T11:43:09;100104.84;;;15.20;87.23
45813;BME280;31519;45.408;10.962;2024-03-02T11:45:38;100094.19;;;15.23;87.35
45813;BME280;31519;45.408;10.962;2024-03-02T11:48:15;100099.13;;;15.21;88.42
45813;BME280;31519;45.408;10.962;2024-03-02T11:50:49;100099.53;;;15.07;88.21
45813;BME280;31519;45.408;10.962;2024-03-02T11:53:19;100092.69;;;15.10;88.55
45813;BME280;31519;45.408;10.962;2024-03-02T11:55:49;100098.56;;;15.00;88.45
45813;BME280;31519;45.408;10.962;2024-03-02T11:58:18;100084.44;;;15.46;87.54
45813;BME280;31519;45.408;10.962;2024-03-02T12:00:55;100086.59;;;15.41;87.26
45813;BME280;31519;45.408;10.962;2024-03-02T12:03:25;100075.88;;;15.57;87.57
45813;BME280;31519;45.408;10.962;2024-03-02T12:05:56;100071.91;;;15.66;86.98
45813;BME280;31519;45.408;10.962;2024-03-02T12:08:24;100071.22;;;15.54;87.77
45813;BME280;31519;45.408;10.962;2024-03-02T12:10:58;100077.75;;;15.87;87.85
45813;BME280;31519;45.408;10.962;2024-03-02T12:13:27;100071.72;;;15.43;88.88
45813;BME280;31519;45.408;10.962;2024-03-02T12:15:56;100065.75;;;15.66;89.42
45813;BME280;31519;45.408;10.962;2024-03-02T12:18:25;100065.63;;;15.78;88.35
45813;BME280;31519;45.408;10.962;2024-03-02T12:20:54;100055.66;;;15.94;87.08
45813;BME280;31519;45.408;10.962;2024-03-02T12:23:27;100061.88;;;15.98;86.49
45813;BME280;31519;45.408;10.962;2024-03-02T12:25:56;100061.72;;;15.91;86.66
45813;BME280;31519;45.408;10.962;2024-03-02T12:28:24;100071.19;;;15.85;85.48
45813;BME280;31519;45.408;10.962;2024-03-02T12:30:53;100075.94;;;16.46;82.87
45813;BME280;31519;45.408;10.962;2024-03-02T12:33:22;100062.13;;;16.63;81.55
45813;BME280;31519;45.408;10.962;2024-03-02T12:35:51;100059.06;;;16.64;82.70
45813;BME280;31519;45.408;10.962;2024-03-02T12:38:19;100062.66;;;16.53;82.94
45813;BME280;31519;45.408;10.962;2024-03-02T12:41:16;100071.16;;;16.35;82.65
45813;BME280;31519;45.408;10.962;2024-03-02T12:43:44;100068.44;;;16.16;82.41
45813;BME280;31519;45.408;10.962;2024-03-02T12:46:14;100066.22;;;15.87;83.53
45813;BME280;31519;45.408;10.962;2024-03-02T12:48:43;100068.25;;;15.59;83.87
45813;BME280;31519;45.408;10.962;2024-03-02T12:51:12;100078.13;;;15.70;83.99
45813;BME280;31519;45.408;10.962;2024-03-02T12:53:40;100070.25;;;15.62;84.89
45813;BME280;31519;45.408;10.962;2024-03-02T12:56:09;100070.91;;;15.43;85.75
45813;BME280;31519;45.408;10.962;2024-03-02T12:58:40;100068.75;;;15.33;85.47
45813;BME280;31519;45.408;10.962;2024-03-02T13:01:15;100073.59;;;15.43;85.82
45813;BME280;31519;45.408;10.962;2024-03-02T13:03:50;100069.03;;;15.43;86.37
45813;BME280;31519;45.408;10.962;2024-03-02T13:06:19;100074.44;;;15.16;85.96
45813;BME280;31519;45.408;10.962;2024-03-02T13:08:48;100067.59;;;15.18;86.47
45813;BME280;31519;45.408;10.962;2024-03-02T13:11:17;100070.81;;;15.24;85.95
45813;BME280;31519;45.408;10.962;2024-03-02T13:13:45;100067.59;;;15.02;86.24
45813;BME280;31519;45.408;10.962;2024-03-02T13:16:15;100055.94;;;15.11;86.32
45813;BME280;31519;45.408;10.962;2024-03-02T13:18:44;100061.56;;;15.21;86.03
45813;BME280;31519;45.408;10.962;2024-03-02T13:21:13;100050.22;;;15.12;86.23
45813;BME280;31519;45.408;10.962;2024-03-02T13:23:41;100053.16;;;15.07;85.55
45813;BME280;31519;45.408;10.962;2024-03-02T13:26:10;100044.00;;;15.24;84.63
45813;BME280;31519;45.408;10.962;2024-03-02T13:28:40;100046.69;;;15.39;83.60
45813;BME280;31519;45.408;10.962;2024-03-02T13:31:08;100039.25;;;15.48;82.68
45813;BME280;31519;45.408;10.962;2024-03-02T13:33:37;100050.16;;;15.56;81.57
45813;BME280;31519;45.408;10.962;2024-03-02T13:36:06;100047.22;;;15.61;79.83
45813;BME280;31519;45.408;10.962;2024-03-02T13:38:34;100039.84;;;15.73;80.29
45813;BME280;31519;45.408;10.962;2024-03-02T13:41:03;100044.22;;;15.81;80.28
45813;BME280;31519;45.408;10.962;2024-03-02T13:43:31;100040.97;;;16.07;79.09
45813;BME280;31519;45.408;10.962;2024-03-02T13:46:02;100037.13;;;15.89;77.93